Time;durP1;ratioP1;P1;durP2;ratioP2;P2;SDS_P1;SDS_P2;PMS_P1;PMS_P2;Temp;Humidity;BMP_temperature;BMP_pressure;BME280_temperature;BME280_humidity;BME280_pressure;Samples;Min_cycle;Max_cycle;Signal;HPM_P1;HPM_P2
2021/11/29 00:01:57;;;;;;;0.60;0.50;;;;;;;;;;5055420;28;20212;-72
2021/11/29 00:04:24;;;;;;;0.60;0.55;;;;;;;;;;5056625;28;20595;-72
2021/11/29 00:06:51;;;;;;;0.60;0.60;;;;;;;;;;5055620;28;20174;-72
2021/11/29 00:09:19;;;;;;;1.10;1.00;;;;;;;;;;5071896;28;20288;-71
2021/11/29 00:11:45;;;;;;;0.60;0.60;;;;;;;;;;5054900;28;20217;-72
2021/11/29 00:14:14;;;;;;;0.60;0.50;;;;;;;;;;5037704;28;20190;-72
2021/11/29 00:16:40;;;;;;;0.70;0.70;;;;;;;;;;5054637;28;20213;-72
2021/11/29 00:19:08;;;;;;;0.60;0.60;;;;;;;;;;5056459;28;20181;-72
2021/11/29 00:21:35;;;;;;;0.60;0.60;;;;;;;;;;5071506;28;20197;-72
2021/11/29 00:24:02;;;;;;;0.60;0.50;;;;;;;;;;5055017;28;20226;-71
2021/11/29 00:26:29;;;;;;;0.60;0.55;;;;;;;;;;5054388;28;20190;-72
2021/11/29 00:28:55;;;;;;;0.60;0.50;;;;;;;;;;5054370;28;20673;-72
2021/11/29 00:31:23;;;;;;;0.60;0.60;;;;;;;;;;5055778;28;20244;-71
2021/11/29 00:33:51;;;;;;;0.60;0.50;;;;;;;;;;5054940;28;20268;-72
2021/11/29 00:36:17;;;;;;;0.60;0.50;;;;;;;;;;5071698;28;20202;-71
2021/11/29 00:38:44;;;;;;;0.60;0.60;;;;;;;;;;5071452;28;20217;-72
2021/11/29 00:41:11;;;;;;;0.60;0.50;;;;;;;;;;5054602;28;20272;-71
2021/11/29 00:43:38;;;;;;;0.60;0.60;;;;;;;;;;5052726;28;20604;-72
2021/11/29 00:46:04;;;;;;;0.60;0.50;;;;;;;;;;5056004;28;20217;-72
2021/11/29 00:48:34;;;;;;;0.60;0.50;;;;;;;;;;5056135;28;20182;-72
2021/11/29 00:51:01;;;;;;;0.60;0.60;;;;;;;;;;5055767;28;20194;-72
2021/11/29 00:53:29;;;;;;;0.60;0.60;;;;;;;;;;5055943;28;20220;-72
2021/11/29 00:55:56;;;;;;;0.60;0.60;;;;;;;;;;5054700;28;20542;-72
2021/11/29 00:58:23;;;;;;;0.60;0.50;;;;;;;;;;5054907;28;20232;-72
2021/11/29 01:00:50;;;;;;;0.60;0.50;;;;;;;;;;5054701;28;20314;-72
2021/11/29 01:03:17;;;;;;;0.60;0.50;;;;;;;;;;5054897;28;20577;-72
2021/11/29 01:05:45;;;;;;;0.60;0.60;;;;;;;;;;5055602;28;20200;-71
2021/11/29 01:08:12;;;;;;;0.60;0.60;;;;;;;;;;5054359;28;20217;-72
2021/11/29 01:10:39;;;;;;;0.50;0.50;;;;;;;;;;5054119;28;20212;-72
2021/11/29 01:13:07;;;;;;;0.60;0.60;;;;;;;;;;5070885;28;20205;-72
2021/11/29 01:15:35;;;;;;;0.50;0.50;;;;;;;;;;5054615;28;20186;-72
2021/11/29 01:18:07;;;;;;;0.60;0.50;;;;;;;;;;5055574;28;20198;-72
2021/11/29 01:20:34;;;;;;;0.50;0.50;;;;;;;;;;5055278;28;20189;-72
2021/11/29 01:23:03;;;;;;;0.50;0.47;;;;;;;;;;5054645;28;20215;-72
2021/11/29 01:25:29;;;;;;;0.60;0.60;;;;;;;;;;5053758;28;20190;-74
2021/11/29 01:27:57;;;;;;;0.55;0.50;;;;;;;;;;5055328;28;20193;-72
2021/11/29 01:30:24;;;;;;;0.60;0.50;;;;;;;;;;5070006;28;20252;-72
2021/11/29 01:32:51;;;;;;;0.55;0.55;;;;;;;;;;5055202;28;20224;-72
2021/11/29 01:35:20;;;;;;;1.45;1.35;;;;;;;;;;5054058;28;20292;-72
2021/11/29 01:37:51;;;;;;;0.50;0.50;;;;;;;;;;5067386;28;21922;-73
2021/11/29 01:40:29;;;;;;;0.55;0.50;;;;;;;;;;5053219;28;20186;-72
2021/11/29 01:42:59;;;;;;;0.50;0.50;;;;;;;;;;5053209;28;20195;-72
2021/11/29 01:45:31;;;;;;;0.50;0.50;;;;;;;;;;5052624;28;20538;-73
2021/11/29 01:48:13;;;;;;;0.60;0.60;;;;;;;;;;5051458;28;20234;-73
2021/11/29 01:50:43;;;;;;;0.50;0.50;;;;;;;;;;5052342;28;20197;-72
2021/11/29 01:53:22;;;;;;;0.50;0.50;;;;;;;;;;5069941;28;20247;-72
2021/11/29 01:55:58;;;;;;;0.50;0.50;;;;;;;;;;5054526;28;20669;-72
2021/11/29 01:58:34;;;;;;;0.50;0.50;;;;;;;;;;5053168;28;20220;-72
2021/11/29 02:01:06;;;;;;;0.50;0.50;;;;;;;;;;5053026;28;20190;-72
2021/11/29 02:03:38;;;;;;;0.50;0.50;;;;;;;;;;5054478;28;20174;-72
2021/11/29 02:06:07;;;;;;;0.50;0.50;;;;;;;;;;5068937;28;20281;-72
2021/11/29 02:08:39;;;;;;;0.50;0.50;;;;;;;;;;5054437;28;20701;-72
2021/11/29 02:11:12;;;;;;;0.50;0.50;;;;;;;;;;5052963;28;20189;-72
2021/11/29 02:13:41;;;;;;;0.50;0.50;;;;;;;;;;5053856;28;20182;-72
2021/11/29 02:16:14;;;;;;;0.50;0.50;;;;;;;;;;5052812;28;20289;-72
2021/11/29 02:18:43;;;;;;;0.60;0.50;;;;;;;;;;5053187;28;20240;-72
2021/11/29 02:21:18;;;;;;;0.60;0.50;;;;;;;;;;5053076;28;20190;-72
2021/11/29 02:23:53;;;;;;;0.50;0.50;;;;;;;;;;5052935;28;20220;-73
2021/11/29 02:26:26;;;;;;;0.60;0.50;;;;;;;;;;5052810;28;20189;-73
2021/11/29 02:28:59;;;;;;;0.60;0.50;;;;;;;;;;5053158;28;20165;-73
2021/11/29 02:31:47;;;;;;;0.50;0.50;;;;;;;;;;5052182;28;20192;-72
2021/11/29 02:34:31;;;;;;;0.57;0.50;;;;;;;;;;5053365;28;20204;-73
2021/11/29 02:37:04;;;;;;;0.60;0.60;;;;;;;;;;5053659;28;20197;-73
2021/11/29 02:39:57;;;;;;;0.60;0.60;;;;;;;;;;5053790;28;20590;-73
2021/11/29 02:42:27;;;;;;;0.60;0.50;;;;;;;;;;5051859;28;20205;-73
2021/11/29 02:45:00;;;;;;;0.60;0.60;;;;;;;;;;5052662;28;20551;-72
2021/11/29 02:47:29;;;;;;;0.50;0.50;;;;;;;;;;5051540;28;20181;-73
2021/11/29 02:50:06;;;;;;;0.60;0.50;;;;;;;;;;5053888;28;20177;-73
2021/11/29 02:52:37;;;;;;;0.68;0.68;;;;;;;;;;5052233;28;20209;-73
2021/11/29 02:55:08;;;;;;;0.57;0.55;;;;;;;;;;5051918;28;20174;-73
2021/11/29 02:57:35;;;;;;;0.60;0.50;;;;;;;;;;5053402;28;20243;-73
2021/11/29 03:00:02;;;;;;;0.60;0.60;;;;;;;;;;5035728;28;20190;-73
2021/11/29 03:02:31;;;;;;;0.60;0.60;;;;;;;;;;5050338;28;20190;-73
2021/11/29 03:05:03;;;;;;;0.60;0.60;;;;;;;;;;5053989;28;20203;-73
2021/11/29 03:07:30;;;;;;;0.50;0.50;;;;;;;;;;5053600;28;20267;-73
2021/11/29 03:09:58;;;;;;;0.60;0.50;;;;;;;;;;5053602;28;20688;-73
2021/11/29 03:12:25;;;;;;;0.60;0.50;;;;;;;;;;5052412;28;20597;-73
2021/11/29 03:14:53;;;;;;;0.50;0.50;;;;;;;;;;5052412;28;20229;-73
2021/11/29 03:17:20;;;;;;;0.50;0.50;;;;;;;;;;5051621;28;20244;-73
2021/11/29 03:19:47;;;;;;;0.50;0.50;;;;;;;;;;5052856;28;20193;-73
2021/11/29 03:22:15;;;;;;;0.50;0.50;;;;;;;;;;5052577;28;20315;-73
2021/11/29 03:24:46;;;;;;;0.50;0.50;;;;;;;;;;5053265;28;20185;-73
2021/11/29 03:27:15;;;;;;;0.60;0.60;;;;;;;;;;5051824;28;20243;-73
2021/11/29 03:29:43;;;;;;;0.60;0.50;;;;;;;;;;5052802;28;20166;-72
2021/11/29 03:32:11;;;;;;;0.50;0.50;;;;;;;;;;5066971;28;20255;-72
2021/11/29 03:34:39;;;;;;;0.52;0.50;;;;;;;;;;5053512;28;20650;-73
2021/11/29 03:37:06;;;;;;;0.60;0.50;;;;;;;;;;5051295;28;20217;-72
2021/11/29 03:39:32;;;;;;;0.60;0.60;;;;;;;;;;5051823;28;20185;-72
2021/11/29 03:42:03;;;;;;;0.50;0.50;;;;;;;;;;5049222;28;20281;-72
2021/11/29 03:44:31;;;;;;;0.50;0.50;;;;;;;;;;5050392;28;20531;-73
2021/11/29 03:46:57;;;;;;;0.60;0.55;;;;;;;;;;5053092;28;20206;-72
2021/11/29 03:49:25;;;;;;;0.50;0.50;;;;;;;;;;5051860;28;20228;-72
2021/11/29 03:51:51;;;;;;;0.60;0.60;;;;;;;;;;5067229;28;20300;-73
2021/11/29 03:54:19;;;;;;;0.60;0.60;;;;;;;;;;5051931;28;20198;-72
2021/11/29 03:56:46;;;;;;;0.60;0.52;;;;;;;;;;5052102;28;20217;-72
2021/11/29 03:59:13;;;;;;;0.50;0.50;;;;;;;;;;5051230;28;20202;-73
2021/11/29 04:01:47;;;;;;;0.60;0.50;;;;;;;;;;5052594;28;20269;-73
2021/11/29 04:04:15;;;;;;;0.52;0.50;;;;;;;;;;5052168;28;20224;-73
2021/11/29 04:06:42;;;;;;;0.50;0.50;;;;;;;;;;5052744;28;20192;-72
2021/11/29 04:09:09;;;;;;;0.50;0.50;;;;;;;;;;5053389;28;20192;-73
2021/11/29 04:11:36;;;;;;;0.50;0.50;;;;;;;;;;5056799;28;20174;-72
2021/11/29 04:14:03;;;;;;;0.60;0.60;;;;;;;;;;5051799;28;20193;-73
2021/11/29 04:16:30;;;;;;;0.50;0.50;;;;;;;;;;5056490;28;20192;-72
2021/11/29 04:19:00;;;;;;;0.50;0.50;;;;;;;;;;5055964;28;20338;-73
2021/11/29 04:21:27;;;;;;;0.70;0.70;;;;;;;;;;5056228;28;20750;-72
2021/11/29 04:23:54;;;;;;;0.60;0.50;;;;;;;;;;5053164;28;20209;-72
2021/11/29 04:26:22;;;;;;;0.50;0.50;;;;;;;;;;5055801;28;20217;-72
2021/11/29 04:28:54;;;;;;;0.63;0.63;;;;;;;;;;5056404;28;20170;-72
2021/11/29 04:31:22;;;;;;;0.60;0.52;;;;;;;;;;5055176;28;20205;-72
2021/11/29 04:33:48;;;;;;;0.50;0.50;;;;;;;;;;5050901;28;20182;-72
2021/11/29 04:36:17;;;;;;;0.60;0.60;;;;;;;;;;5046631;28;20183;-72
2021/11/29 04:38:44;;;;;;;0.50;0.50;;;;;;;;;;5036298;28;20675;-72
2021/11/29 04:41:11;;;;;;;0.60;0.60;;;;;;;;;;5050765;28;20213;-72
2021/11/29 04:43:38;;;;;;;0.60;0.60;;;;;;;;;;5053964;28;20218;-72
2021/11/29 04:46:05;;;;;;;0.60;0.60;;;;;;;;;;5054534;28;20178;-72
2021/11/29 04:48:33;;;;;;;0.50;0.50;;;;;;;;;;5054791;28;20182;-72
2021/11/29 04:51:00;;;;;;;0.50;0.50;;;;;;;;;;5054159;28;20593;-72
2021/11/29 04:53:29;;;;;;;0.50;0.50;;;;;;;;;;5047133;28;20244;-72
2021/11/29 04:55:56;;;;;;;0.50;0.50;;;;;;;;;;5055427;28;20626;-72
2021/11/29 04:58:23;;;;;;;0.55;0.50;;;;;;;;;;5052177;28;20236;-72
2021/11/29 05:00:52;;;;;;;0.60;0.60;;;;;;;;;;5053465;28;20235;-73
2021/11/29 05:03:20;;;;;;;0.50;0.50;;;;;;;;;;5054050;28;20197;-73
2021/11/29 05:05:47;;;;;;;0.50;0.50;;;;;;;;;;5055556;28;20251;-72
2021/11/29 05:08:30;;;;;;;0.50;0.50;;;;;;;;;;5055619;28;20295;-73
2021/11/29 05:10:57;;;;;;;0.50;0.50;;;;;;;;;;5055243;28;20598;-73
2021/11/29 05:13:24;;;;;;;0.50;0.50;;;;;;;;;;5055320;28;20186;-73
2021/11/29 05:15:51;;;;;;;0.43;0.40;;;;;;;;;;5052854;28;20193;-73
2021/11/29 05:18:18;;;;;;;0.50;0.40;;;;;;;;;;5053942;28;20634;-73
2021/11/29 05:20:45;;;;;;;0.50;0.50;;;;;;;;;;5052985;28;20292;-73
2021/11/29 05:23:12;;;;;;;0.50;0.50;;;;;;;;;;5069848;28;20597;-74
2021/11/29 05:25:40;;;;;;;0.50;0.50;;;;;;;;;;5055690;28;20209;-72
2021/11/29 05:28:07;;;;;;;0.50;0.50;;;;;;;;;;5054150;28;20553;-73
2021/11/29 05:30:34;;;;;;;0.50;0.50;;;;;;;;;;5054205;28;20659;-73
2021/11/29 05:33:01;;;;;;;0.55;0.55;;;;;;;;;;5069688;28;20186;-74
2021/11/29 05:35:28;;;;;;;0.50;0.50;;;;;;;;;;5055054;28;20672;-74
2021/11/29 05:37:54;;;;;;;0.43;0.40;;;;;;;;;;5051316;28;20217;-73
2021/11/29 05:40:22;;;;;;;0.40;0.40;;;;;;;;;;5035346;28;20189;-73
2021/11/29 05:42:51;;;;;;;0.45;0.45;;;;;;;;;;5034142;28;20194;-73
2021/11/29 05:45:19;;;;;;;0.50;0.50;;;;;;;;;;5037969;28;20193;-73
2021/11/29 05:47:45;;;;;;;0.50;0.50;;;;;;;;;;5054964;28;20550;-73
2021/11/29 05:50:13;;;;;;;0.40;0.40;;;;;;;;;;5053899;28;20620;-73
2021/11/29 05:52:40;;;;;;;0.40;0.40;;;;;;;;;;5054622;28;20540;-73
2021/11/29 05:55:09;;;;;;;0.40;0.40;;;;;;;;;;5053485;28;20197;-73
2021/11/29 05:57:36;;;;;;;0.50;0.50;;;;;;;;;;5054664;28;20210;-73
2021/11/29 06:00:05;;;;;;;0.50;0.50;;;;;;;;;;5054266;28;20301;-73
2021/11/29 06:02:38;;;;;;;0.50;0.50;;;;;;;;;;5054368;28;20652;-73
2021/11/29 06:05:05;;;;;;;0.50;0.50;;;;;;;;;;5053470;28;20202;-73
2021/11/29 06:07:32;;;;;;;0.82;0.82;;;;;;;;;;5054715;28;20212;-74
2021/11/29 06:09:59;;;;;;;0.50;0.50;;;;;;;;;;5054814;28;20589;-73
2021/11/29 06:12:26;;;;;;;0.50;0.40;;;;;;;;;;5052979;28;20197;-74
2021/11/29 06:14:53;;;;;;;0.50;0.45;;;;;;;;;;5054311;28;20186;-73
2021/11/29 06:17:21;;;;;;;0.50;0.50;;;;;;;;;;5051992;28;20206;-74
2021/11/29 06:19:49;;;;;;;0.50;0.50;;;;;;;;;;5054293;28;20205;-73
2021/11/29 06:22:16;;;;;;;0.60;0.60;;;;;;;;;;5054603;28;20241;-74
2021/11/29 06:24:43;;;;;;;0.50;0.45;;;;;;;;;;5069090;28;20731;-74
2021/11/29 06:27:12;;;;;;;0.50;0.50;;;;;;;;;;5053075;28;20193;-73
2021/11/29 06:29:39;;;;;;;0.50;0.40;;;;;;;;;;5054515;28;20193;-73
2021/11/29 06:32:07;;;;;;;0.50;0.50;;;;;;;;;;5053922;28;20604;-73
2021/11/29 06:34:36;;;;;;;0.50;0.50;;;;;;;;;;5070267;28;20190;-73
2021/11/29 06:37:03;;;;;;;0.50;0.50;;;;;;;;;;5054065;28;20228;-73
2021/11/29 06:39:31;;;;;;;0.50;0.40;;;;;;;;;;5054347;28;20220;-73
2021/11/29 06:42:00;;;;;;;0.50;0.50;;;;;;;;;;5052887;28;20200;-73
2021/11/29 06:44:27;;;;;;;0.50;0.50;;;;;;;;;;5051835;28;20612;-73
2021/11/29 06:46:54;;;;;;;0.50;0.50;;;;;;;;;;5069695;28;20182;-73
2021/11/29 06:49:21;;;;;;;0.50;0.47;;;;;;;;;;5052578;28;20186;-73
2021/11/29 06:51:49;;;;;;;0.50;0.50;;;;;;;;;;5051968;28;20194;-74
2021/11/29 06:54:17;;;;;;;0.50;0.50;;;;;;;;;;5051405;28;20185;-73
2021/11/29 06:56:45;;;;;;;0.50;0.50;;;;;;;;;;5052553;28;20244;-74
2021/11/29 06:59:11;;;;;;;0.50;0.50;;;;;;;;;;5051803;28;20193;-73
2021/11/29 07:01:39;;;;;;;0.50;0.50;;;;;;;;;;5052590;28;20661;-73
2021/11/29 07:04:06;;;;;;;0.52;0.50;;;;;;;;;;5053574;28;20201;-73
2021/11/29 07:06:33;;;;;;;0.50;0.50;;;;;;;;;;5053688;28;20190;-73
2021/11/29 07:09:02;;;;;;;1.50;0.93;;;;;;;;;;5052238;28;20220;-73
2021/11/29 07:11:28;;;;;;;0.50;0.50;;;;;;;;;;5050681;28;20215;-73
2021/11/29 07:13:55;;;;;;;0.55;0.50;;;;;;;;;;5053141;28;20230;-73
2021/11/29 07:16:22;;;;;;;0.50;0.50;;;;;;;;;;5053541;28;20263;-73
2021/11/29 07:18:50;;;;;;;0.50;0.50;;;;;;;;;;5053771;28;20545;-73
2021/11/29 07:21:16;;;;;;;0.52;0.50;;;;;;;;;;5053681;28;20197;-73
2021/11/29 07:23:44;;;;;;;0.50;0.50;;;;;;;;;;5052679;28;20685;-72
2021/11/29 07:26:12;;;;;;;0.50;0.50;;;;;;;;;;5051925;28;20217;-71
2021/11/29 07:28:39;;;;;;;0.50;0.50;;;;;;;;;;5052837;28;20240;-73
2021/11/29 07:31:07;;;;;;;0.50;0.50;;;;;;;;;;5051126;28;20496;-72
2021/11/29 07:33:34;;;;;;;0.50;0.50;;;;;;;;;;5046292;28;20205;-72
2021/11/29 07:36:01;;;;;;;0.50;0.50;;;;;;;;;;5032256;28;20186;-72
2021/11/29 07:38:28;;;;;;;0.50;0.50;;;;;;;;;;5033227;28;20570;-72
2021/11/29 07:40:55;;;;;;;0.50;0.50;;;;;;;;;;5048855;28;20277;-73
2021/11/29 07:43:23;;;;;;;0.50;0.50;;;;;;;;;;5039020;28;20280;-72
2021/11/29 07:45:51;;;;;;;0.50;0.50;;;;;;;;;;5057460;28;20209;-72
2021/11/29 07:48:19;;;;;;;0.50;0.50;;;;;;;;;;5072425;28;20629;-72
2021/11/29 07:50:45;;;;;;;0.50;0.50;;;;;;;;;;5039467;28;20197;-72
2021/11/29 07:53:12;;;;;;;0.50;0.50;;;;;;;;;;5055722;28;20559;-72
2021/11/29 07:55:40;;;;;;;0.50;0.50;;;;;;;;;;5056335;28;20190;-72
2021/11/29 07:58:07;;;;;;;0.50;0.50;;;;;;;;;;5056206;28;20575;-73
2021/11/29 08:00:37;;;;;;;0.50;0.50;;;;;;;;;;5055526;28;20251;-72
2021/11/29 08:03:05;;;;;;;0.50;0.50;;;;;;;;;;5056699;28;20182;-72
2021/11/29 08:05:33;;;;;;;0.50;0.50;;;;;;;;;;5072079;28;20182;-72
2021/11/29 08:08:06;;;;;;;1.05;1.05;;;;;;;;;;5056298;28;20214;-72
2021/11/29 08:10:34;;;;;;;0.50;0.50;;;;;;;;;;5056477;28;20197;-72
2021/11/29 08:13:01;;;;;;;0.50;0.50;;;;;;;;;;5056092;28;20276;-72
2021/11/29 08:15:29;;;;;;;0.70;0.70;;;;;;;;;;5055183;28;20195;-72
2021/11/29 08:17:57;;;;;;;0.60;0.50;;;;;;;;;;5055582;28;20225;-72
2021/11/29 08:20:24;;;;;;;0.57;0.50;;;;;;;;;;5056398;28;20193;-71
2021/11/29 08:22:51;;;;;;;0.50;0.50;;;;;;;;;;5056609;28;20213;-72
2021/11/29 08:25:19;;;;;;;0.50;0.50;;;;;;;;;;5057049;28;20185;-71
2021/11/29 08:27:46;;;;;;;0.50;0.50;;;;;;;;;;5071987;28;20229;-71
2021/11/29 08:30:14;;;;;;;0.50;0.50;;;;;;;;;;5056251;28;20524;-72
2021/11/29 08:32:41;;;;;;;0.60;0.50;;;;;;;;;;5056526;28;20268;-72
2021/11/29 08:35:11;;;;;;;0.50;0.50;;;;;;;;;;5056391;28;20217;-72
2021/11/29 08:37:42;;;;;;;0.50;0.50;;;;;;;;;;5055137;28;20229;-71
2021/11/29 08:40:10;;;;;;;0.60;0.52;;;;;;;;;;5054839;28;20221;-72
2021/11/29 08:42:36;;;;;;;0.60;0.50;;;;;;;;;;5071999;28;20710;-72
2021/11/29 08:45:04;;;;;;;0.60;0.50;;;;;;;;;;5071538;28;20206;-73
2021/11/29 08:47:32;;;;;;;0.50;0.50;;;;;;;;;;5070863;28;20182;-72
2021/11/29 08:50:00;;;;;;;0.60;0.50;;;;;;;;;;5054805;28;20719;-72
2021/11/29 08:52:49;;;;;;;0.50;0.50;;;;;;;;;;5054933;28;20248;-72
2021/11/29 08:55:16;;;;;;;0.60;0.50;;;;;;;;;;5054917;28;20198;-71
2021/11/29 08:57:43;;;;;;;0.70;0.70;;;;;;;;;;5054158;28;20276;-71
2021/11/29 09:00:14;;;;;;;0.60;0.50;;;;;;;;;;5055854;28;20204;-72
2021/11/29 09:02:41;;;;;;;0.60;0.50;;;;;;;;;;5055855;28;20182;-72
2021/11/29 09:05:09;;;;;;;0.60;0.50;;;;;;;;;;5053206;28;20767;-72
2021/11/29 09:07:39;;;;;;;0.60;0.50;;;;;;;;;;5055509;28;20309;-72
2021/11/29 09:10:10;;;;;;;0.60;0.50;;;;;;;;;;5054272;28;20182;-72
2021/11/29 09:12:38;;;;;;;0.60;0.60;;;;;;;;;;5054180;28;20181;-72
2021/11/29 09:15:08;;;;;;;0.60;0.50;;;;;;;;;;5053932;28;20223;-75
2021/11/29 09:17:36;;;;;;;0.60;0.50;;;;;;;;;;5053015;28;20646;-72
2021/11/29 09:20:04;;;;;;;0.60;0.50;;;;;;;;;;5053927;28;20198;-72
2021/11/29 09:22:30;;;;;;;0.60;0.50;;;;;;;;;;5054017;28;20225;-72
2021/11/29 09:25:00;;;;;;;0.60;0.50;;;;;;;;;;5054335;28;20489;-72
2021/11/29 09:27:28;;;;;;;0.60;0.60;;;;;;;;;;5048578;28;20197;-71
2021/11/29 09:29:54;;;;;;;0.60;0.60;;;;;;;;;;5040132;28;20652;-72
2021/11/29 09:32:21;;;;;;;0.60;0.60;;;;;;;;;;5035463;28;20188;-71
2021/11/29 09:34:49;;;;;;;0.60;0.60;;;;;;;;;;5034236;28;20205;-71
2021/11/29 09:37:18;;;;;;;0.70;0.70;;;;;;;;;;5033763;28;20244;-72
2021/11/29 09:39:49;;;;;;;0.60;0.60;;;;;;;;;;5051743;28;20217;-71
2021/11/29 09:42:16;;;;;;;0.60;0.50;;;;;;;;;;5055104;28;20182;-72
2021/11/29 09:44:44;;;;;;;0.60;0.50;;;;;;;;;;5055180;28;20260;-72
2021/11/29 09:47:12;;;;;;;0.60;0.50;;;;;;;;;;5054913;28;20202;-71
2021/11/29 09:49:39;;;;;;;0.60;0.50;;;;;;;;;;5070528;28;20201;-72
2021/11/29 09:52:06;;;;;;;0.60;0.50;;;;;;;;;;5053113;28;20205;-72
2021/11/29 09:54:32;;;;;;;0.60;0.50;;;;;;;;;;5052933;28;20200;-72
2021/11/29 09:57:20;;;;;;;0.70;0.60;;;;;;;;;;5067372;28;20166;-71
2021/11/29 09:59:50;;;;;;;0.60;0.60;;;;;;;;;;5053185;28;20581;-72
2021/11/29 10:02:17;;;;;;;0.60;0.50;;;;;;;;;;5053081;28;20534;-72
2021/11/29 10:04:48;;;;;;;0.60;0.50;;;;;;;;;;5054345;28;20233;-73
2021/11/29 10:07:25;;;;;;;0.77;0.77;;;;;;;;;;5053083;28;20286;-73
2021/11/29 10:09:55;;;;;;;0.60;0.50;;;;;;;;;;5053457;28;20631;-74
2021/11/29 10:12:24;;;;;;;1.15;1.15;;;;;;;;;;5054573;28;20217;-73
2021/11/29 10:15:10;;;;;;;0.60;0.60;;;;;;;;;;5054151;28;20186;-72
2021/11/29 10:17:38;;;;;;;0.60;0.50;;;;;;;;;;5052346;28;20181;-72
2021/11/29 10:20:29;;;;;;;0.60;0.50;;;;;;;;;;5053023;28;20197;-74
2021/11/29 10:22:56;;;;;;;0.60;0.50;;;;;;;;;;5052234;28;20237;-73
2021/11/29 10:25:24;;;;;;;0.60;0.50;;;;;;;;;;5054416;28;20190;-73
2021/11/29 10:27:51;;;;;;;0.60;0.50;;;;;;;;;;5054056;28;20186;-73
2021/11/29 10:30:39;;;;;;;0.60;0.50;;;;;;;;;;5034443;28;20260;-73
2021/11/29 10:33:09;;;;;;;0.60;0.60;;;;;;;;;;5034482;28;20186;-73
2021/11/29 10:35:36;;;;;;;0.60;0.50;;;;;;;;;;5033286;28;20585;-73
2021/11/29 10:38:04;;;;;;;0.60;0.50;;;;;;;;;;5033869;28;20214;-74
2021/11/29 10:40:32;;;;;;;0.60;0.50;;;;;;;;;;5033242;28;20367;-73
2021/11/29 10:43:04;;;;;;;0.60;0.50;;;;;;;;;;5036109;28;20228;-73
2021/11/29 10:45:39;;;;;;;0.60;0.60;;;;;;;;;;5033508;28;20255;-73
2021/11/29 10:51:09;;;;;;;0.60;0.50;;;;;;;;;;5132382;27;21117;-71
2021/11/29 10:53:50;;;;;;;0.70;0.63;;;;;;;;;;5132225;28;20255;-74
2021/11/29 10:56:19;;;;;;;0.60;0.50;;;;;;;;;;5114771;28;20223;-72
2021/11/29 10:58:48;;;;;;;0.60;0.50;;;;;;;;;;5111268;28;20679;-72
2021/11/29 11:01:16;;;;;;;0.90;0.90;;;;;;;;;;5080912;28;20298;-73
2021/11/29 11:03:52;;;;;;;0.60;0.50;;;;;;;;;;5093096;28;20207;-73
2021/11/29 11:06:26;;;;;;;0.60;0.50;;;;;;;;;;5110034;28;20191;-73
2021/11/29 11:08:54;;;;;;;0.60;0.50;;;;;;;;;;5110175;28;20207;-72
2021/11/29 11:11:28;;;;;;;0.60;0.50;;;;;;;;;;5111395;28;20190;-72
2021/11/29 11:13:57;;;;;;;0.60;0.50;;;;;;;;;;5110243;28;20183;-73
2021/11/29 11:16:38;;;;;;;0.60;0.50;;;;;;;;;;5112667;28;20211;-74
2021/11/29 11:19:08;;;;;;;0.60;0.50;;;;;;;;;;5114378;28;20176;-75
2021/11/29 11:21:36;;;;;;;0.60;0.50;;;;;;;;;;5111702;28;20195;-73
2021/11/29 11:24:25;;;;;;;0.60;0.60;;;;;;;;;;5114670;28;20240;-72
2021/11/29 11:26:55;;;;;;;0.85;0.82;;;;;;;;;;5111316;28;20177;-72
2021/11/29 11:29:33;;;;;;;0.60;0.50;;;;;;;;;;5095230;28;20282;-73
2021/11/29 11:32:14;;;;;;;0.60;0.50;;;;;;;;;;5093241;28;20218;-73
2021/11/29 11:34:43;;;;;;;0.60;0.50;;;;;;;;;;5091047;28;20206;-73
2021/11/29 11:37:12;;;;;;;0.60;0.60;;;;;;;;;;5092763;28;20225;-73
2021/11/29 11:39:40;;;;;;;0.95;0.95;;;;;;;;;;5092829;28;20188;-72
2021/11/29 11:42:07;;;;;;;0.60;0.50;;;;;;;;;;5109770;28;20193;-73
2021/11/29 11:44:36;;;;;;;0.60;0.50;;;;;;;;;;5093173;28;20225;-73
2021/11/29 11:47:05;;;;;;;0.60;0.50;;;;;;;;;;5131398;28;20171;-72
2021/11/29 11:49:33;;;;;;;0.60;0.50;;;;;;;;;;5131259;28;20608;-72
2021/11/29 11:52:01;;;;;;;0.60;0.50;;;;;;;;;;5112548;28;20203;-73
2021/11/29 11:54:30;;;;;;;0.60;0.50;;;;;;;;;;5113035;28;20174;-73
2021/11/29 11:57:19;;;;;;;0.60;0.50;;;;;;;;;;5112077;28;20206;-73
2021/11/29 11:59:59;;;;;;;0.60;0.50;;;;;;;;;;5131617;28;20171;-73
2021/11/29 12:03:01;;;;;;;0.60;0.50;;;;;;;;;;5101038;28;20193;-72
2021/11/29 12:05:29;;;;;;;0.70;0.70;;;;;;;;;;5117281;28;20172;-73
2021/11/29 12:07:56;;;;;;;0.60;0.50;;;;;;;;;;5117131;28;20252;-73
2021/11/29 12:10:39;;;;;;;0.60;0.50;;;;;;;;;;5095983;28;20215;-73
2021/11/29 12:13:07;;;;;;;0.60;0.57;;;;;;;;;;5098556;28;20177;-73
2021/11/29 12:15:36;;;;;;;0.60;0.50;;;;;;;;;;5096819;28;20213;-73
2021/11/29 12:18:05;;;;;;;0.60;0.57;;;;;;;;;;5104483;28;20192;-73
2021/11/29 12:20:36;;;;;;;1.02;1.02;;;;;;;;;;5096445;28;20189;-73
2021/11/29 12:23:22;;;;;;;0.60;0.60;;;;;;;;;;5078892;28;20207;-73
2021/11/29 12:25:50;;;;;;;0.60;0.60;;;;;;;;;;5076747;28;20450;-73
2021/11/29 12:28:32;;;;;;;0.60;0.50;;;;;;;;;;5096467;28;20640;-73
2021/11/29 12:30:59;;;;;;;0.60;0.50;;;;;;;;;;5077534;28;20459;-72
2021/11/29 12:33:41;;;;;;;0.60;0.50;;;;;;;;;;5095925;28;20184;-73
2021/11/29 12:36:08;;;;;;;0.60;0.50;;;;;;;;;;5077959;28;20208;-72
2021/11/29 12:38:44;;;;;;;0.60;0.50;;;;;;;;;;5079268;28;20466;-73
2021/11/29 12:41:33;;;;;;;0.60;0.50;;;;;;;;;;5094762;28;20422;-72
2021/11/29 12:44:01;;;;;;;0.60;0.50;;;;;;;;;;5096015;28;20409;-73
2021/11/29 12:46:28;;;;;;;0.60;0.50;;;;;;;;;;5095336;28;20422;-73
2021/11/29 12:48:58;;;;;;;0.60;0.50;;;;;;;;;;5095259;28;20446;-73
2021/11/29 12:51:44;;;;;;;0.60;0.50;;;;;;;;;;5068200;28;20511;-73
2021/11/29 12:54:30;;;;;;;0.60;0.60;;;;;;;;;;5069440;28;20211;-73
2021/11/29 12:57:11;;;;;;;0.60;0.50;;;;;;;;;;5105014;28;20893;-72
2021/11/29 12:59:49;;;;;;;0.60;0.50;;;;;;;;;;5077392;28;20511;-73
2021/11/29 13:02:31;;;;;;;0.60;0.50;;;;;;;;;;5095380;28;20418;-72
2021/11/29 13:04:58;;;;;;;0.60;0.50;;;;;;;;;;5083099;28;20545;-72
2021/11/29 13:07:24;;;;;;;0.60;0.50;;;;;;;;;;5112818;28;20987;-73
2021/11/29 13:09:51;;;;;;;0.60;0.50;;;;;;;;;;5116327;28;20788;-72
2021/11/29 13:12:21;;;;;;;0.60;0.50;;;;;;;;;;5097929;28;20443;-72
2021/11/29 13:14:50;;;;;;;0.77;0.77;;;;;;;;;;5095758;28;20462;-72
2021/11/29 13:17:17;;;;;;;0.60;0.50;;;;;;;;;;5092911;28;20514;-72
2021/11/29 13:19:44;;;;;;;0.60;0.50;;;;;;;;;;5088739;28;20490;-72
2021/11/29 13:22:13;;;;;;;1.10;0.80;;;;;;;;;;5070839;28;20475;-72
2021/11/29 13:24:41;;;;;;;0.60;0.50;;;;;;;;;;5088361;28;20433;-72
2021/11/29 13:27:09;;;;;;;0.60;0.60;;;;;;;;;;5085407;28;20413;-72
2021/11/29 13:29:38;;;;;;;0.60;0.60;;;;;;;;;;5080012;28;20529;-72
2021/11/29 13:32:08;;;;;;;0.60;0.50;;;;;;;;;;5083824;28;20930;-73
2021/11/29 13:34:36;;;;;;;0.60;0.50;;;;;;;;;;5096763;28;20502;-73
2021/11/29 13:37:04;;;;;;;0.60;0.50;;;;;;;;;;5115769;28;20449;-74
2021/11/29 13:39:32;;;;;;;0.60;0.50;;;;;;;;;;5094051;28;20444;-73
2021/11/29 13:42:09;;;;;;;0.60;0.50;;;;;;;;;;5086581;28;20533;-73
2021/11/29 13:44:57;;;;;;;0.60;0.60;;;;;;;;;;5092141;28;20437;-73
2021/11/29 13:47:27;;;;;;;0.60;0.50;;;;;;;;;;5090053;28;20471;-73
2021/11/29 13:49:57;;;;;;;0.60;0.50;;;;;;;;;;5107035;28;20490;-74
2021/11/29 13:52:24;;;;;;;0.60;0.50;;;;;;;;;;5084741;28;20492;-74
2021/11/29 13:54:55;;;;;;;0.60;0.50;;;;;;;;;;5088181;28;20424;-73
2021/11/29 13:57:30;;;;;;;0.60;0.60;;;;;;;;;;5086333;28;20427;-72
2021/11/29 14:00:06;;;;;;;0.60;0.50;;;;;;;;;;5083858;28;20502;-74
2021/11/29 14:02:40;;;;;;;0.60;0.50;;;;;;;;;;5097643;28;20410;-72
2021/11/29 14:05:07;;;;;;;0.60;0.50;;;;;;;;;;5078224;28;20454;-74
2021/11/29 14:07:52;;;;;;;0.60;0.60;;;;;;;;;;5110146;28;20545;-72
2021/11/29 14:10:28;;;;;;;0.60;0.50;;;;;;;;;;5089746;28;20461;-72
2021/11/29 14:12:57;;;;;;;0.60;0.50;;;;;;;;;;5088255;28;20489;-73
2021/11/29 14:15:29;;;;;;;0.60;0.60;;;;;;;;;;5087745;28;20445;-72
2021/11/29 14:17:58;;;;;;;0.60;0.50;;;;;;;;;;5102344;28;20450;-73
2021/11/29 14:20:26;;;;;;;0.60;0.50;;;;;;;;;;5102361;28;20505;-74
2021/11/29 14:22:55;;;;;;;0.60;0.50;;;;;;;;;;5090092;28;20814;-73
2021/11/29 14:25:23;;;;;;;0.60;0.50;;;;;;;;;;5110092;28;20429;-74
2021/11/29 14:27:50;;;;;;;0.60;0.60;;;;;;;;;;5073345;28;20436;-74
2021/11/29 14:30:17;;;;;;;0.60;0.50;;;;;;;;;;5110670;28;20495;-73
2021/11/29 14:32:44;;;;;;;0.60;0.60;;;;;;;;;;5107037;28;20450;-73
2021/11/29 14:35:13;;;;;;;0.60;0.60;;;;;;;;;;5103527;28;20441;-74
2021/11/29 14:37:40;;;;;;;0.60;0.50;;;;;;;;;;5109178;28;20454;-74
2021/11/29 14:40:07;;;;;;;0.60;0.50;;;;;;;;;;5098341;28;20918;-74
2021/11/29 14:42:35;;;;;;;0.60;0.50;;;;;;;;;;5078851;28;20450;-74
2021/11/29 14:45:03;;;;;;;0.60;0.60;;;;;;;;;;5070907;28;20452;-73
2021/11/29 14:47:37;;;;;;;0.60;0.50;;;;;;;;;;5097253;28;20507;-73
2021/11/29 14:50:08;;;;;;;0.60;0.50;;;;;;;;;;5093766;28;20484;-72
2021/11/29 14:52:37;;;;;;;0.93;0.87;;;;;;;;;;5105376;28;20479;-73
2021/11/29 14:55:06;;;;;;;0.60;0.50;;;;;;;;;;5079924;28;20456;-72
2021/11/29 14:57:41;;;;;;;0.60;0.50;;;;;;;;;;5084037;28;20446;-73
2021/11/29 15:00:08;;;;;;;0.60;0.60;;;;;;;;;;5066680;28;20192;-73
2021/11/29 15:02:36;;;;;;;0.60;0.50;;;;;;;;;;5104260;28;20450;-73